sensor_id;sensor_type;location;lat;lon;timestamp;P1;durP1;ratioP1;P2;durP2;ratioP2
19566;SDS011;9930;49.240;8.548;2023-01-20T00:01:55;8.27;;;7.40;;
19566;SDS011;9930;49.240;8.548;2023-01-20T00:04:21;8.83;;;7.40;;
19566;SDS011;9930;49.240;8.548;2023-01-20T00:06:55;8.57;;;7.50;;
19566;SDS011;9930;49.240;8.548;2023-01-20T00:09:25;8.30;;;7.50;;
19566;SDS011;9930;49.240;8.548;2023-01-20T00:11:50;7.80;;;7.03;;
19566;SDS011;9930;49.240;8.548;2023-01-20T00:14:21;8.00;;;7.23;;
19566;SDS011;9930;49.240;8.548;2023-01-20T00:16:51;9.23;;;7.28;;
19566;SDS011;9930;49.240;8.548;2023-01-20T00:19:22;8.57;;;7.17;;
19566;SDS011;9930;49.240;8.548;2023-01-20T00:21:52;9.67;;;7.53;;
19566;SDS011;9930;49.240;8.548;2023-01-20T00:24:21;8.10;;;7.30;;
19566;SDS011;9930;49.240;8.548;2023-01-20T00:26:51;7.40;;;6.60;;
19566;SDS011;9930;49.240;8.548;2023-01-20T00:29:21;8.03;;;7.10;;
19566;SDS011;9930;49.240;8.548;2023-01-20T00:31:55;7.37;;;6.67;;
19566;SDS011;9930;49.240;8.548;2023-01-20T00:34:21;7.27;;;6.47;;
19566;SDS011;9930;49.240;8.548;2023-01-20T00:36:50;7.57;;;6.88;;
19566;SDS011;9930;49.240;8.548;2023-01-20T00:39:21;7.80;;;6.60;;
19566;SDS011;9930;49.240;8.548;2023-01-20T00:41:52;7.50;;;6.80;;
19566;SDS011;9930;49.240;8.548;2023-01-20T00:44:21;7.77;;;6.60;;
19566;SDS011;9930;49.240;8.548;2023-01-20T00:46:54;8.23;;;6.93;;
19566;SDS011;9930;49.240;8.548;2023-01-20T00:49:21;7.67;;;6.70;;
19566;SDS011;9930;49.240;8.548;2023-01-20T00:51:53;7.50;;;6.77;;
19566;SDS011;9930;49.240;8.548;2023-01-20T00:54:20;7.53;;;6.83;;
19566;SDS011;9930;49.240;8.548;2023-01-20T00:56:50;7.25;;;6.53;;
19566;SDS011;9930;49.240;8.548;2023-01-20T00:59:21;7.50;;;6.80;;
19566;SDS011;9930;49.240;8.548;2023-01-20T01:01:51;9.63;;;6.63;;
19566;SDS011;9930;49.240;8.548;2023-01-20T01:04:21;6.93;;;6.23;;
19566;SDS011;9930;49.240;8.548;2023-01-20T01:06:53;7.07;;;6.40;;
19566;SDS011;9930;49.240;8.548;2023-01-20T01:09:21;8.37;;;7.47;;
19566;SDS011;9930;49.240;8.548;2023-01-20T01:11:49;8.77;;;7.93;;
19566;SDS011;9930;49.240;8.548;2023-01-20T01:14:18;8.23;;;7.33;;
19566;SDS011;9930;49.240;8.548;2023-01-20T01:16:50;8.10;;;7.30;;
19566;SDS011;9930;49.240;8.548;2023-01-20T01:19:21;8.33;;;7.20;;
19566;SDS011;9930;49.240;8.548;2023-01-20T01:21:49;8.80;;;7.90;;
19566;SDS011;9930;49.240;8.548;2023-01-20T01:24:21;8.27;;;7.43;;
19566;SDS011;9930;49.240;8.548;2023-01-20T01:26:51;7.60;;;6.83;;
19566;SDS011;9930;49.240;8.548;2023-01-20T01:29:22;8.53;;;7.07;;
19566;SDS011;9930;49.240;8.548;2023-01-20T01:31:50;7.53;;;6.43;;
19566;SDS011;9930;49.240;8.548;2023-01-20T01:34:25;8.47;;;6.80;;
19566;SDS011;9930;49.240;8.548;2023-01-20T01:37:01;9.17;;;7.53;;
19566;SDS011;9930;49.240;8.548;2023-01-20T01:39:26;8.73;;;7.63;;
19566;SDS011;9930;49.240;8.548;2023-01-20T01:41:52;8.80;;;7.90;;
19566;SDS011;9930;49.240;8.548;2023-01-20T01:44:23;8.67;;;7.77;;
19566;SDS011;9930;49.240;8.548;2023-01-20T01:46:51;8.13;;;7.33;;
19566;SDS011;9930;49.240;8.548;2023-01-20T01:49:24;8.83;;;7.93;;
19566;SDS011;9930;49.240;8.548;2023-01-20T01:51:58;9.00;;;7.73;;
19566;SDS011;9930;49.240;8.548;2023-01-20T01:54:32;9.20;;;7.83;;
19566;SDS011;9930;49.240;8.548;2023-01-20T01:57:02;8.90;;;8.00;;
19566;SDS011;9930;49.240;8.548;2023-01-20T01:59:32;7.97;;;7.23;;
19566;SDS011;9930;49.240;8.548;2023-01-20T02:02:01;8.23;;;7.43;;
19566;SDS011;9930;49.240;8.548;2023-01-20T02:04:29;8.87;;;7.47;;
19566;SDS011;9930;49.240;8.548;2023-01-20T02:07:01;9.53;;;7.43;;
19566;SDS011;9930;49.240;8.548;2023-01-20T02:09:32;8.80;;;7.30;;
19566;SDS011;9930;49.240;8.548;2023-01-20T02:12:05;8.43;;;7.63;;
19566;SDS011;9930;49.240;8.548;2023-01-20T02:14:52;9.77;;;7.30;;
19566;SDS011;9930;49.240;8.548;2023-01-20T02:37:25;8.63;;;6.97;;
19566;SDS011;9930;49.240;8.548;2023-01-20T02:40:41;7.80;;;7.10;;
19566;SDS011;9930;49.240;8.548;2023-01-20T02:48:55;7.43;;;6.57;;
19566;SDS011;9930;49.240;8.548;2023-01-20T02:52:00;7.30;;;6.60;;
19566;SDS011;9930;49.240;8.548;2023-01-20T02:54:35;7.43;;;6.70;;
19566;SDS011;9930;49.240;8.548;2023-01-20T02:57:07;8.47;;;7.57;;
19566;SDS011;9930;49.240;8.548;2023-01-20T02:59:40;8.33;;;7.50;;
19566;SDS011;9930;49.240;8.548;2023-01-20T03:02:21;7.37;;;6.67;;
19566;SDS011;9930;49.240;8.548;2023-01-20T03:04:57;7.23;;;6.53;;
19566;SDS011;9930;49.240;8.548;2023-01-20T03:07:57;8.80;;;6.83;;
19566;SDS011;9930;49.240;8.548;2023-01-20T03:10:28;9.00;;;7.00;;
19566;SDS011;9930;49.240;8.548;2023-01-20T03:13:04;7.07;;;6.37;;
19566;SDS011;9930;49.240;8.548;2023-01-20T03:15:46;7.70;;;6.93;;
19566;SDS011;9930;49.240;8.548;2023-01-20T03:18:28;8.57;;;7.30;;
19566;SDS011;9930;49.240;8.548;2023-01-20T03:20:57;7.73;;;6.97;;
19566;SDS011;9930;49.240;8.548;2023-01-20T03:23:26;8.63;;;7.73;;
19566;SDS011;9930;49.240;8.548;2023-01-20T03:25:57;9.57;;;8.57;;
19566;SDS011;9930;49.240;8.548;2023-01-20T03:28:24;8.87;;;8.00;;
19566;SDS011;9930;49.240;8.548;2023-01-20T03:30:50;9.47;;;8.47;;
19566;SDS011;9930;49.240;8.548;2023-01-20T03:33:22;9.67;;;8.23;;
19566;SDS011;9930;49.240;8.548;2023-01-20T03:35:50;8.70;;;7.80;;
19566;SDS011;9930;49.240;8.548;2023-01-20T03:38:19;10.30;;;8.00;;
19566;SDS011;9930;49.240;8.548;2023-01-20T03:41:06;8.70;;;7.77;;
19566;SDS011;9930;49.240;8.548;2023-01-20T03:43:59;7.30;;;6.60;;
19566;SDS011;9930;49.240;8.548;2023-01-20T03:50:29;8.70;;;7.20;;
19566;SDS011;9930;49.240;8.548;2023-01-20T03:53:07;8.27;;;7.37;;
19566;SDS011;9930;49.240;8.548;2023-01-20T03:56:17;7.77;;;6.67;;
19566;SDS011;9930;49.240;8.548;2023-01-20T03:59:19;7.10;;;6.40;;
19566;SDS011;9930;49.240;8.548;2023-01-20T04:01:49;8.17;;;7.23;;
19566;SDS011;9930;49.240;8.548;2023-01-20T04:04:19;9.13;;;7.37;;
19566;SDS011;9930;49.240;8.548;2023-01-20T04:06:50;7.93;;;7.13;;
19566;SDS011;9930;49.240;8.548;2023-01-20T04:09:21;7.43;;;6.70;;
19566;SDS011;9930;49.240;8.548;2023-01-20T04:11:53;7.30;;;6.60;;
19566;SDS011;9930;49.240;8.548;2023-01-20T04:14:20;7.23;;;6.53;;
19566;SDS011;9930;49.240;8.548;2023-01-20T04:16:56;7.53;;;6.80;;
19566;SDS011;9930;49.240;8.548;2023-01-20T04:19:23;7.40;;;6.70;;
19566;SDS011;9930;49.240;8.548;2023-01-20T04:21:52;7.53;;;6.77;;
19566;SDS011;9930;49.240;8.548;2023-01-20T04:24:26;7.27;;;6.57;;
19566;SDS011;9930;49.240;8.548;2023-01-20T04:27:19;8.13;;;6.63;;
19566;SDS011;9930;49.240;8.548;2023-01-20T04:29:49;7.73;;;6.93;;
19566;SDS011;9930;49.240;8.548;2023-01-20T04:32:20;7.83;;;7.03;;
19566;SDS011;9930;49.240;8.548;2023-01-20T04:34:50;7.47;;;6.77;;
19566;SDS011;9930;49.240;8.548;2023-01-20T04:37:20;7.23;;;6.53;;
19566;SDS011;9930;49.240;8.548;2023-01-20T04:39:50;7.87;;;7.13;;
19566;SDS011;9930;49.240;8.548;2023-01-20T04:42:19;8.20;;;7.40;;
19566;SDS011;9930;49.240;8.548;2023-01-20T04:44:49;7.97;;;7.10;;
19566;SDS011;9930;49.240;8.548;2023-01-20T04:47:23;9.30;;;7.37;;
19566;SDS011;9930;49.240;8.548;2023-01-20T04:49:53;9.00;;;6.80;;
19566;SDS011;9930;49.240;8.548;2023-01-20T04:52:22;8.07;;;7.27;;
19566;SDS011;9930;49.240;8.548;2023-01-20T04:54:49;7.23;;;6.47;;
19566;SDS011;9930;49.240;8.548;2023-01-20T04:57:19;7.90;;;6.60;;
19566;SDS011;9930;49.240;8.548;2023-01-20T04:59:48;9.17;;;8.17;;
19566;SDS011;9930;49.240;8.548;2023-01-20T05:02:15;17.13;;;12.27;;
19566;SDS011;9930;49.240;8.548;2023-01-20T05:04:42;19.00;;;12.80;;
19566;SDS011;9930;49.240;8.548;2023-01-20T05:07:09;15.43;;;11.20;;
19566;SDS011;9930;49.240;8.548;2023-01-20T05:09:35;12.90;;;9.73;;
19566;SDS011;9930;49.240;8.548;2023-01-20T05:12:01;9.00;;;7.57;;
19566;SDS011;9930;49.240;8.548;2023-01-20T05:14:27;9.43;;;7.63;;
19566;SDS011;9930;49.240;8.548;2023-01-20T05:16:53;9.90;;;8.67;;
19566;SDS011;9930;49.240;8.548;2023-01-20T05:19:20;10.77;;;9.67;;
19566;SDS011;9930;49.240;8.548;2023-01-20T05:21:50;11.67;;;9.87;;
19566;SDS011;9930;49.240;8.548;2023-01-20T05:24:20;10.53;;;9.00;;
19566;SDS011;9930;49.240;8.548;2023-01-20T05:26:50;10.60;;;9.50;;
19566;SDS011;9930;49.240;8.548;2023-01-20T05:29:20;9.33;;;8.40;;
19566;SDS011;9930;49.240;8.548;2023-01-20T05:31:50;9.07;;;8.17;;
19566;SDS011;9930;49.240;8.548;2023-01-20T05:34:19;8.60;;;7.70;;
19566;SDS011;9930;49.240;8.548;2023-01-20T05:36:51;8.47;;;7.23;;
19566;SDS011;9930;49.240;8.548;2023-01-20T05:39:25;7.80;;;7.00;;
19566;SDS011;9930;49.240;8.548;2023-01-20T05:42:10;7.80;;;7.10;;
19566;SDS011;9930;49.240;8.548;2023-01-20T05:44:36;8.17;;;7.03;;
19566;SDS011;9930;49.240;8.548;2023-01-20T05:47:09;7.80;;;6.30;;
19566;SDS011;9930;49.240;8.548;2023-01-20T05:49:38;6.60;;;6.00;;
19566;SDS011;9930;49.240;8.548;2023-01-20T05:52:04;7.17;;;6.43;;
19566;SDS011;9930;49.240;8.548;2023-01-20T05:54:33;7.27;;;6.57;;
19566;SDS011;9930;49.240;8.548;2023-01-20T05:57:10;7.63;;;6.83;;
19566;SDS011;9930;49.240;8.548;2023-01-20T05:59:50;7.13;;;6.43;;
19566;SDS011;9930;49.240;8.548;2023-01-20T06:02:20;7.43;;;6.63;;
19566;SDS011;9930;49.240;8.548;2023-01-20T06:04:53;7.80;;;6.97;;
19566;SDS011;9930;49.240;8.548;2023-01-20T06:07:21;7.60;;;6.83;;
19566;SDS011;9930;49.240;8.548;2023-01-20T06:09:47;9.17;;;7.57;;
19566;SDS011;9930;49.240;8.548;2023-01-20T06:12:16;9.57;;;8.13;;
19566;SDS011;9930;49.240;8.548;2023-01-20T06:14:48;9.37;;;7.80;;
19566;SDS011;9930;49.240;8.548;2023-01-20T06:17:19;7.97;;;7.17;;
19566;SDS011;9930;49.240;8.548;2023-01-20T06:19:49;8.63;;;7.73;;
19566;SDS011;9930;49.240;8.548;2023-01-20T06:22:20;8.50;;;7.70;;
19566;SDS011;9930;49.240;8.548;2023-01-20T06:24:50;9.10;;;7.43;;
19566;SDS011;9930;49.240;8.548;2023-01-20T06:27:19;8.13;;;7.27;;
19566;SDS011;9930;49.240;8.548;2023-01-20T06:29:50;8.23;;;7.43;;
19566;SDS011;9930;49.240;8.548;2023-01-20T06:32:33;11.93;;;9.03;;
19566;SDS011;9930;49.240;8.548;2023-01-20T06:35:20;25.13;;;15.07;;
19566;SDS011;9930;49.240;8.548;2023-01-20T06:37:51;17.80;;;11.03;;
19566;SDS011;9930;49.240;8.548;2023-01-20T06:40:24;13.23;;;10.07;;
19566;SDS011;9930;49.240;8.548;2023-01-20T06:42:56;13.87;;;10.17;;
19566;SDS011;9930;49.240;8.548;2023-01-20T06:45:34;10.93;;;9.40;;
19566;SDS011;9930;49.240;8.548;2023-01-20T06:48:02;9.97;;;8.57;;
19566;SDS011;9930;49.240;8.548;2023-01-20T06:50:37;8.20;;;7.40;;
19566;SDS011;9930;49.240;8.548;2023-01-20T06:53:09;8.87;;;7.70;;
19566;SDS011;9930;49.240;8.548;2023-01-20T06:55:57;9.17;;;7.53;;
19566;SDS011;9930;49.240;8.548;2023-01-20T06:58:27;9.80;;;8.80;;
19566;SDS011;9930;49.240;8.548;2023-01-20T07:01:12;8.70;;;7.70;;
19566;SDS011;9930;49.240;8.548;2023-01-20T07:03:50;8.17;;;7.27;;
19566;SDS011;9930;49.240;8.548;2023-01-20T07:09:10;8.00;;;7.00;;
19566;SDS011;9930;49.240;8.548;2023-01-20T07:11:39;7.83;;;7.03;;
19566;SDS011;9930;49.240;8.548;2023-01-20T07:14:15;7.60;;;6.73;;
19566;SDS011;9930;49.240;8.548;2023-01-20T07:16:50;7.30;;;6.50;;
19566;SDS011;9930;49.240;8.548;2023-01-20T07:19:18;7.17;;;6.47;;
19566;SDS011;9930;49.240;8.548;2023-01-20T07:21:54;6.77;;;6.17;;
19566;SDS011;9930;49.240;8.548;2023-01-20T07:24:35;6.60;;;6.00;;
19566;SDS011;9930;49.240;8.548;2023-01-20T07:27:03;7.07;;;6.23;;
19566;SDS011;9930;49.240;8.548;2023-01-20T07:29:33;7.07;;;6.07;;
19566;SDS011;9930;49.240;8.548;2023-01-20T07:32:02;7.27;;;6.57;;
19566;SDS011;9930;49.240;8.548;2023-01-20T07:34:49;7.97;;;7.10;;
19566;SDS011;9930;49.240;8.548;2023-01-20T07:37:18;8.87;;;7.20;;
19566;SDS011;9930;49.240;8.548;2023-01-20T07:39:56;8.43;;;7.53;;
19566;SDS011;9930;49.240;8.548;2023-01-20T07:42:22;8.63;;;7.50;;
19566;SDS011;9930;49.240;8.548;2023-01-20T07:45:05;8.90;;;7.90;;
19566;SDS011;9930;49.240;8.548;2023-01-20T07:47:55;8.30;;;7.40;;
19566;SDS011;9930;49.240;8.548;2023-01-20T07:50:25;8.03;;;7.23;;
19566;SDS011;9930;49.240;8.548;2023-01-20T07:52:52;9.30;;;8.17;;
19566;SDS011;9930;49.240;8.548;2023-01-20T07:55:20;8.43;;;7.63;;
19566;SDS011;9930;49.240;8.548;2023-01-20T07:57:49;8.80;;;7.83;;
19566;SDS011;9930;49.240;8.548;2023-01-20T08:00:20;8.97;;;7.70;;
19566;SDS011;9930;49.240;8.548;2023-01-20T08:02:53;8.63;;;7.83;;
19566;SDS011;9930;49.240;8.548;2023-01-20T08:05:20;8.60;;;7.53;;
19566;SDS011;9930;49.240;8.548;2023-01-20T08:07:51;8.30;;;7.50;;
19566;SDS011;9930;49.240;8.548;2023-01-20T08:10:20;8.50;;;7.60;;
19566;SDS011;9930;49.240;8.548;2023-01-20T08:12:49;8.50;;;7.70;;
19566;SDS011;9930;49.240;8.548;2023-01-20T08:15:20;8.13;;;7.37;;
19566;SDS011;9930;49.240;8.548;2023-01-20T08:17:52;7.43;;;6.73;;
19566;SDS011;9930;49.240;8.548;2023-01-20T08:20:23;7.87;;;7.07;;
19566;SDS011;9930;49.240;8.548;2023-01-20T08:22:50;7.30;;;6.60;;
19566;SDS011;9930;49.240;8.548;2023-01-20T08:25:19;6.83;;;6.13;;
19566;SDS011;9930;49.240;8.548;2023-01-20T08:27:49;6.60;;;6.00;;
19566;SDS011;9930;49.240;8.548;2023-01-20T08:30:20;7.13;;;6.17;;
19566;SDS011;9930;49.240;8.548;2023-01-20T08:32:49;7.03;;;6.33;;
19566;SDS011;9930;49.240;8.548;2023-01-20T08:35:18;7.07;;;6.37;;
19566;SDS011;9930;49.240;8.548;2023-01-20T08:37:55;5.97;;;5.40;;
19566;SDS011;9930;49.240;8.548;2023-01-20T08:40:27;7.10;;;6.20;;
19566;SDS011;9930;49.240;8.548;2023-01-20T08:42:53;6.97;;;6.10;;
19566;SDS011;9930;49.240;8.548;2023-01-20T08:45:22;8.03;;;6.80;;
19566;SDS011;9930;49.240;8.548;2023-01-20T08:47:51;16.93;;;11.77;;
19566;SDS011;9930;49.240;8.548;2023-01-20T08:50:20;18.33;;;11.87;;
19566;SDS011;9930;49.240;8.548;2023-01-20T08:52:49;16.03;;;10.37;;
19566;SDS011;9930;49.240;8.548;2023-01-20T08:55:18;11.63;;;7.83;;
19566;SDS011;9930;49.240;8.548;2023-01-20T08:57:48;17.97;;;11.50;;
19566;SDS011;9930;49.240;8.548;2023-01-20T09:00:17;22.03;;;15.10;;
19566;SDS011;9930;49.240;8.548;2023-01-20T09:02:49;11.80;;;9.47;;
19566;SDS011;9930;49.240;8.548;2023-01-20T09:05:15;10.73;;;8.03;;
19566;SDS011;9930;49.240;8.548;2023-01-20T09:07:51;14.10;;;11.30;;
19566;SDS011;9930;49.240;8.548;2023-01-20T09:10:23;17.40;;;13.20;;
19566;SDS011;9930;49.240;8.548;2023-01-20T09:12:51;13.60;;;9.83;;
19566;SDS011;9930;49.240;8.548;2023-01-20T09:15:20;16.30;;;11.83;;
19566;SDS011;9930;49.240;8.548;2023-01-20T09:17:49;17.40;;;12.83;;
19566;SDS011;9930;49.240;8.548;2023-01-20T09:20:22;11.57;;;9.37;;
19566;SDS011;9930;49.240;8.548;2023-01-20T09:22:53;9.70;;;7.97;;
19566;SDS011;9930;49.240;8.548;2023-01-20T09:25:22;9.93;;;8.83;;
19566;SDS011;9930;49.240;8.548;2023-01-20T09:27:49;10.00;;;9.00;;
19566;SDS011;9930;49.240;8.548;2023-01-20T09:30:15;9.77;;;8.23;;
19566;SDS011;9930;49.240;8.548;2023-01-20T09:32:50;8.40;;;7.50;;
19566;SDS011;9930;49.240;8.548;2023-01-20T09:35:20;8.47;;;7.50;;
19566;SDS011;9930;49.240;8.548;2023-01-20T09:37:49;7.97;;;7.07;;
19566;SDS011;9930;49.240;8.548;2023-01-20T09:40:35;8.13;;;6.93;;
19566;SDS011;9930;49.240;8.548;2023-01-20T09:43:55;7.87;;;7.17;;
19566;SDS011;9930;49.240;8.548;2023-01-20T09:53:07;7.75;;;6.95;;
19566;SDS011;9930;49.240;8.548;2023-01-20T09:56:10;8.23;;;7.25;;
19566;SDS011;9930;49.240;8.548;2023-01-20T10:01:39;7.85;;;7.05;;
19566;SDS011;9930;49.240;8.548;2023-01-20T10:15:00;8.70;;;7.85;;
19566;SDS011;9930;49.240;8.548;2023-01-20T10:17:43;8.45;;;7.57;;
19566;SDS011;9930;49.240;8.548;2023-01-20T10:20:34;8.55;;;7.70;;
19566;SDS011;9930;49.240;8.548;2023-01-20T10:23:29;9.38;;;8.48;;
19566;SDS011;9930;49.240;8.548;2023-01-20T10:27:21;8.23;;;7.43;;
19566;SDS011;9930;49.240;8.548;2023-01-20T10:29:25;12.27;;;8.65;;
19566;SDS011;9930;49.240;8.548;2023-01-20T10:32:01;9.70;;;8.00;;
19566;SDS011;9930;49.240;8.548;2023-01-20T10:34:45;8.50;;;7.25;;
19566;SDS011;9930;49.240;8.548;2023-01-20T10:37:19;8.85;;;7.95;;
19566;SDS011;9930;49.240;8.548;2023-01-20T10:42:38;9.27;;;8.30;;
19566;SDS011;9930;49.240;8.548;2023-01-20T10:45:04;8.95;;;8.05;;
19566;SDS011;9930;49.240;8.548;2023-01-20T10:50:58;7.75;;;6.82;;
19566;SDS011;9930;49.240;8.548;2023-01-20T10:53:59;7.47;;;6.78;;
19566;SDS011;9930;49.240;8.548;2023-01-20T10:56:53;8.70;;;7.80;;
19566;SDS011;9930;49.240;8.548;2023-01-20T11:02:14;8.50;;;7.43;;
19566;SDS011;9930;49.240;8.548;2023-01-20T11:07:27;7.43;;;6.63;;
19566;SDS011;9930;49.240;8.548;2023-01-20T11:09:58;7.28;;;6.50;;
19566;SDS011;9930;49.240;8.548;2023-01-20T11:12:39;8.35;;;7.45;;
19566;SDS011;9930;49.240;8.548;2023-01-20T11:23:31;7.28;;;6.57;;
19566;SDS011;9930;49.240;8.548;2023-01-20T11:31:51;6.40;;;5.80;;
19566;SDS011;9930;49.240;8.548;2023-01-20T11:34:30;10.00;;;8.07;;
19566;SDS011;9930;49.240;8.548;2023-01-20T11:40:25;6.22;;;5.63;;
19566;SDS011;9930;49.240;8.548;2023-01-20T11:42:53;6.68;;;5.72;;
19566;SDS011;9930;49.240;8.548;2023-01-20T11:45:30;6.85;;;5.93;;
19566;SDS011;9930;49.240;8.548;2023-01-20T11:50:49;7.13;;;5.68;;
19566;SDS011;9930;49.240;8.548;2023-01-20T11:53:28;6.32;;;5.40;;
19566;SDS011;9930;49.240;8.548;2023-01-20T11:58:26;6.68;;;5.50;;
19566;SDS011;9930;49.240;8.548;2023-01-20T12:01:04;6.18;;;5.57;;
19566;SDS011;9930;49.240;8.548;2023-01-20T12:06:48;5.40;;;4.90;;
19566;SDS011;9930;49.240;8.548;2023-01-20T12:09:24;6.82;;;5.65;;
19566;SDS011;9930;49.240;8.548;2023-01-20T12:11:58;7.20;;;5.80;;
19566;SDS011;9930;49.240;8.548;2023-01-20T12:14:38;7.65;;;5.90;;
19566;SDS011;9930;49.240;8.548;2023-01-20T12:26:14;6.85;;;6.15;;
19566;SDS011;9930;49.240;8.548;2023-01-20T12:29:00;6.47;;;5.88;;
19566;SDS011;9930;49.240;8.548;2023-01-20T12:31:36;6.20;;;5.60;;
19566;SDS011;9930;49.240;8.548;2023-01-20T12:34:03;6.85;;;6.15;;
19566;SDS011;9930;49.240;8.548;2023-01-20T12:39:51;6.55;;;5.95;;
19566;SDS011;9930;49.240;8.548;2023-01-20T13:00:17;7.38;;;6.68;;
19566;SDS011;9930;49.240;8.548;2023-01-20T13:03:46;8.05;;;7.25;;
19566;SDS011;9930;49.240;8.548;2023-01-20T13:14:46;6.85;;;6.15;;
19566;SDS011;9930;49.240;8.548;2023-01-20T13:17:37;6.28;;;5.68;;
19566;SDS011;9930;49.240;8.548;2023-01-20T13:20:22;7.28;;;6.53;;
19566;SDS011;9930;49.240;8.548;2023-01-20T13:22:52;6.88;;;5.68;;
19566;SDS011;9930;49.240;8.548;2023-01-20T13:25:28;6.13;;;5.53;;
19566;SDS011;9930;49.240;8.548;2023-01-20T13:27:55;6.05;;;5.55;;
19566;SDS011;9930;49.240;8.548;2023-01-20T13:41:54;9.38;;;7.18;;
19566;SDS011;9930;49.240;8.548;2023-01-20T13:47:08;8.85;;;8.00;;
19566;SDS011;9930;49.240;8.548;2023-01-20T13:49:45;8.77;;;7.90;;
19566;SDS011;9930;49.240;8.548;2023-01-20T13:58:12;7.03;;;6.32;;
19566;SDS011;9930;49.240;8.548;2023-01-20T14:00:38;7.38;;;6.18;;
19566;SDS011;9930;49.240;8.548;2023-01-20T14:05:58;6.45;;;5.85;;
19566;SDS011;9930;49.240;8.548;2023-01-20T14:08:38;8.48;;;6.75;;
19566;SDS011;9930;49.240;8.548;2023-01-20T14:11:08;8.60;;;7.13;;
19566;SDS011;9930;49.240;8.548;2023-01-20T14:13:41;7.57;;;6.82;;
19566;SDS011;9930;49.240;8.548;2023-01-20T14:16:24;7.95;;;7.18;;
19566;SDS011;9930;49.240;8.548;2023-01-20T14:19:04;6.78;;;6.13;;
19566;SDS011;9930;49.240;8.548;2023-01-20T14:21:54;6.72;;;6.13;;
19566;SDS011;9930;49.240;8.548;2023-01-20T14:24:35;6.47;;;5.88;;
19566;SDS011;9930;49.240;8.548;2023-01-20T14:27:16;7.20;;;6.43;;
19566;SDS011;9930;49.240;8.548;2023-01-20T14:29:50;6.80;;;6.10;;
19566;SDS011;9930;49.240;8.548;2023-01-20T14:34:51;6.95;;;5.80;;
19566;SDS011;9930;49.240;8.548;2023-01-20T14:37:22;7.25;;;6.60;;
19566;SDS011;9930;49.240;8.548;2023-01-20T14:40:22;6.70;;;6.10;;
19566;SDS011;9930;49.240;8.548;2023-01-20T14:43:00;9.27;;;5.57;;
19566;SDS011;9930;49.240;8.548;2023-01-20T14:45:28;7.30;;;6.13;;
19566;SDS011;9930;49.240;8.548;2023-01-20T14:48:03;6.40;;;5.80;;
19566;SDS011;9930;49.240;8.548;2023-01-20T14:50:29;6.90;;;6.30;;
19566;SDS011;9930;49.240;8.548;2023-01-20T14:52:55;6.32;;;5.72;;
19566;SDS011;9930;49.240;8.548;2023-01-20T14:55:31;7.18;;;6.32;;
19566;SDS011;9930;49.240;8.548;2023-01-20T14:58:14;6.38;;;5.78;;
19566;SDS011;9930;49.240;8.548;2023-01-20T15:00:53;7.38;;;6.68;;
19566;SDS011;9930;49.240;8.548;2023-01-20T15:03:30;6.55;;;5.95;;
19566;SDS011;9930;49.240;8.548;2023-01-20T15:19:42;7.00;;;6.10;;
19566;SDS011;9930;49.240;8.548;2023-01-20T15:21:53;6.10;;;5.50;;
19566;SDS011;9930;49.240;8.548;2023-01-20T15:24:36;6.68;;;6.07;;
19566;SDS011;9930;49.240;8.548;2023-01-20T15:27:17;6.13;;;5.60;;
19566;SDS011;9930;49.240;8.548;2023-01-20T15:32:24;6.45;;;5.85;;
19566;SDS011;9930;49.240;8.548;2023-01-20T15:34:50;6.90;;;6.22;;
19566;SDS011;9930;49.240;8.548;2023-01-20T15:37:20;7.38;;;6.68;;
19566;SDS011;9930;49.240;8.548;2023-01-20T15:39:49;7.38;;;6.30;;
19566;SDS011;9930;49.240;8.548;2023-01-20T15:42:20;6.50;;;5.90;;
19566;SDS011;9930;49.240;8.548;2023-01-20T15:44:49;7.22;;;5.97;;
19566;SDS011;9930;49.240;8.548;2023-01-20T15:47:21;7.30;;;6.10;;
19566;SDS011;9930;49.240;8.548;2023-01-20T15:49:55;6.90;;;6.10;;
19566;SDS011;9930;49.240;8.548;2023-01-20T15:52:21;7.28;;;6.32;;
19566;SDS011;9930;49.240;8.548;2023-01-20T15:54:49;9.45;;;8.35;;
19566;SDS011;9930;49.240;8.548;2023-01-20T15:57:16;9.48;;;8.35;;
19566;SDS011;9930;49.240;8.548;2023-01-20T15:59:45;8.73;;;7.80;;
19566;SDS011;9930;49.240;8.548;2023-01-20T16:04:49;7.13;;;6.53;;
19566;SDS011;9930;49.240;8.548;2023-01-20T16:07:17;6.55;;;5.95;;
19566;SDS011;9930;49.240;8.548;2023-01-20T16:09:49;7.07;;;6.38;;
19566;SDS011;9930;49.240;8.548;2023-01-20T16:12:16;7.80;;;7.00;;
19566;SDS011;9930;49.240;8.548;2023-01-20T16:14:45;7.35;;;6.65;;
19566;SDS011;9930;49.240;8.548;2023-01-20T16:17:20;6.88;;;6.18;;
19566;SDS011;9930;49.240;8.548;2023-01-20T16:19:48;6.50;;;5.90;;
19566;SDS011;9930;49.240;8.548;2023-01-20T16:22:15;6.00;;;5.30;;
19566;SDS011;9930;49.240;8.548;2023-01-20T16:24:45;5.88;;;5.28;;
19566;SDS011;9930;49.240;8.548;2023-01-20T16:27:20;5.93;;;5.35;;
19566;SDS011;9930;49.240;8.548;2023-01-20T16:29:48;6.13;;;5.53;;
19566;SDS011;9930;49.240;8.548;2023-01-20T16:32:20;5.93;;;5.32;;
19566;SDS011;9930;49.240;8.548;2023-01-20T16:34:49;6.10;;;5.38;;
19566;SDS011;9930;49.240;8.548;2023-01-20T16:37:19;5.70;;;4.93;;
19566;SDS011;9930;49.240;8.548;2023-01-20T16:39:50;6.43;;;5.07;;
19566;SDS011;9930;49.240;8.548;2023-01-20T16:42:17;6.25;;;5.20;;
19566;SDS011;9930;49.240;8.548;2023-01-20T16:44:51;7.93;;;6.65;;
19566;SDS011;9930;49.240;8.548;2023-01-20T16:47:20;10.65;;;8.13;;
19566;SDS011;9930;49.240;8.548;2023-01-20T16:49:46;7.95;;;7.15;;
19566;SDS011;9930;49.240;8.548;2023-01-20T16:52:20;10.02;;;8.05;;
19566;SDS011;9930;49.240;8.548;2023-01-20T16:54:46;8.07;;;7.15;;
19566;SDS011;9930;49.240;8.548;2023-01-20T16:57:19;7.28;;;6.45;;
19566;SDS011;9930;49.240;8.548;2023-01-20T16:59:46;6.95;;;6.25;;
19566;SDS011;9930;49.240;8.548;2023-01-20T17:02:15;6.68;;;5.93;;
19566;SDS011;9930;49.240;8.548;2023-01-20T17:04:45;6.57;;;5.70;;
19566;SDS011;9930;49.240;8.548;2023-01-20T17:07:21;6.20;;;5.60;;
19566;SDS011;9930;49.240;8.548;2023-01-20T17:09:51;6.57;;;5.97;;
19566;SDS011;9930;49.240;8.548;2023-01-20T17:12:20;8.02;;;6.03;;
19566;SDS011;9930;49.240;8.548;2023-01-20T17:14:46;6.47;;;5.75;;
19566;SDS011;9930;49.240;8.548;2023-01-20T17:17:18;7.03;;;5.60;;
19566;SDS011;9930;49.240;8.548;2023-01-20T17:19:50;6.40;;;5.78;;
19566;SDS011;9930;49.240;8.548;2023-01-20T17:22:18;6.25;;;5.63;;
19566;SDS011;9930;49.240;8.548;2023-01-20T17:24:49;6.18;;;5.57;;
19566;SDS011;9930;49.240;8.548;2023-01-20T17:27:19;5.72;;;5.15;;
19566;SDS011;9930;49.240;8.548;2023-01-20T17:29:45;7.50;;;6.65;;
19566;SDS011;9930;49.240;8.548;2023-01-20T17:32:15;7.88;;;7.07;;
19566;SDS011;9930;49.240;8.548;2023-01-20T17:34:48;7.00;;;6.30;;
19566;SDS011;9930;49.240;8.548;2023-01-20T17:37:15;6.68;;;6.05;;
19566;SDS011;9930;49.240;8.548;2023-01-20T17:39:50;5.90;;;5.38;;
19566;SDS011;9930;49.240;8.548;2023-01-20T17:42:17;6.15;;;5.18;;
19566;SDS011;9930;49.240;8.548;2023-01-20T17:44:46;5.53;;;4.97;;
19566;SDS011;9930;49.240;8.548;2023-01-20T17:47:15;5.28;;;4.88;;
19566;SDS011;9930;49.240;8.548;2023-01-20T17:49:46;7.28;;;5.65;;
19566;SDS011;9930;49.240;8.548;2023-01-20T17:52:16;5.72;;;5.22;;
19566;SDS011;9930;49.240;8.548;2023-01-20T17:54:50;6.30;;;5.53;;
19566;SDS011;9930;49.240;8.548;2023-01-20T17:57:18;6.75;;;5.75;;
19566;SDS011;9930;49.240;8.548;2023-01-20T17:59:45;7.22;;;5.57;;
19566;SDS011;9930;49.240;8.548;2023-01-20T18:02:15;11.02;;;9.95;;
19566;SDS011;9930;49.240;8.548;2023-01-20T18:04:49;13.73;;;12.43;;
19566;SDS011;9930;49.240;8.548;2023-01-20T18:07:17;11.07;;;10.05;;
19566;SDS011;9930;49.240;8.548;2023-01-20T18:09:50;9.25;;;7.78;;
19566;SDS011;9930;49.240;8.548;2023-01-20T18:12:19;8.75;;;7.95;;
19566;SDS011;9930;49.240;8.548;2023-01-20T18:14:46;7.22;;;6.53;;
19566;SDS011;9930;49.240;8.548;2023-01-20T18:17:20;6.72;;;6.13;;
19566;SDS011;9930;49.240;8.548;2023-01-20T18:19:50;6.38;;;5.75;;
19566;SDS011;9930;49.240;8.548;2023-01-20T18:22:21;5.63;;;5.10;;
19566;SDS011;9930;49.240;8.548;2023-01-20T18:24:51;5.55;;;5.05;;
19566;SDS011;9930;49.240;8.548;2023-01-20T18:27:23;6.70;;;6.03;;
19566;SDS011;9930;49.240;8.548;2023-01-20T18:29:51;6.95;;;6.32;;